sensor_id;sensor_type;location;lat;lon;timestamp;P1;durP1;ratioP1;P2;durP2;ratioP2
52300;SDS011;38528;53.214;6.562;2022-08-19T00:02:24;11.73;;;6.60;;
52300;SDS011;38528;53.214;6.562;2022-08-19T00:04:50;8.90;;;6.55;;
52300;SDS011;38528;53.214;6.562;2022-08-19T00:07:18;11.15;;;6.85;;
52300;SDS011;38528;53.214;6.562;2022-08-19T00:09:44;10.85;;;6.95;;
52300;SDS011;38528;53.214;6.562;2022-08-19T00:12:10;11.35;;;6.63;;
52300;SDS011;38528;53.214;6.562;2022-08-19T00:14:36;10.75;;;6.38;;
52300;SDS011;38528;53.214;6.562;2022-08-19T00:17:03;9.75;;;6.50;;
52300;SDS011;38528;53.214;6.562;2022-08-19T00:19:32;10.25;;;6.07;;
52300;SDS011;38528;53.214;6.562;2022-08-19T00:21:58;12.48;;;6.45;;
52300;SDS011;38528;53.214;6.562;2022-08-19T00:24:24;8.18;;;5.40;;
52300;SDS011;38528;53.214;6.562;2022-08-19T00:26:49;10.40;;;5.63;;
52300;SDS011;38528;53.214;6.562;2022-08-19T00:29:18;10.63;;;5.50;;
52300;SDS011;38528;53.214;6.562;2022-08-19T00:31:45;10.77;;;5.93;;
52300;SDS011;38528;53.214;6.562;2022-08-19T00:34:12;9.02;;;5.90;;
52300;SDS011;38528;53.214;6.562;2022-08-19T00:36:39;9.52;;;6.00;;
52300;SDS011;38528;53.214;6.562;2022-08-19T00:39:05;6.78;;;5.10;;
52300;SDS011;38528;53.214;6.562;2022-08-19T00:41:32;10.23;;;5.68;;
52300;SDS011;38528;53.214;6.562;2022-08-19T00:43:59;6.75;;;5.07;;
52300;SDS011;38528;53.214;6.562;2022-08-19T00:46:25;10.10;;;5.65;;
52300;SDS011;38528;53.214;6.562;2022-08-19T00:48:51;13.20;;;5.93;;
52300;SDS011;38528;53.214;6.562;2022-08-19T00:51:16;9.98;;;5.82;;
52300;SDS011;38528;53.214;6.562;2022-08-19T00:53:42;8.82;;;5.85;;
52300;SDS011;38528;53.214;6.562;2022-08-19T00:56:08;12.40;;;6.05;;
52300;SDS011;38528;53.214;6.562;2022-08-19T00:58:36;8.80;;;5.80;;
52300;SDS011;38528;53.214;6.562;2022-08-19T01:01:02;12.18;;;6.55;;
52300;SDS011;38528;53.214;6.562;2022-08-19T01:03:29;8.00;;;6.15;;
52300;SDS011;38528;53.214;6.562;2022-08-19T01:05:54;10.95;;;6.47;;
52300;SDS011;38528;53.214;6.562;2022-08-19T01:08:21;13.35;;;7.60;;
52300;SDS011;38528;53.214;6.562;2022-08-19T01:10:53;11.10;;;6.88;;
52300;SDS011;38528;53.214;6.562;2022-08-19T01:13:23;10.20;;;7.57;;
52300;SDS011;38528;53.214;6.562;2022-08-19T01:15:55;16.48;;;8.60;;
52300;SDS011;38528;53.214;6.562;2022-08-19T01:18:23;12.35;;;8.73;;
52300;SDS011;38528;53.214;6.562;2022-08-19T01:20:51;15.63;;;8.85;;
52300;SDS011;38528;53.214;6.562;2022-08-19T01:23:20;13.85;;;8.68;;
52300;SDS011;38528;53.214;6.562;2022-08-19T01:25:47;13.48;;;8.57;;
52300;SDS011;38528;53.214;6.562;2022-08-19T01:28:25;11.32;;;7.47;;
52300;SDS011;38528;53.214;6.562;2022-08-19T01:30:52;12.73;;;7.57;;
52300;SDS011;38528;53.214;6.562;2022-08-19T01:33:19;13.45;;;7.93;;
52300;SDS011;38528;53.214;6.562;2022-08-19T01:35:45;12.77;;;7.90;;
52300;SDS011;38528;53.214;6.562;2022-08-19T01:38:22;13.77;;;8.65;;
52300;SDS011;38528;53.214;6.562;2022-08-19T01:40:51;14.25;;;8.68;;
52300;SDS011;38528;53.214;6.562;2022-08-19T01:43:17;10.77;;;8.15;;
52300;SDS011;38528;53.214;6.562;2022-08-19T01:45:44;12.77;;;8.57;;
52300;SDS011;38528;53.214;6.562;2022-08-19T01:48:10;13.13;;;9.30;;
52300;SDS011;38528;53.214;6.562;2022-08-19T01:50:36;12.98;;;9.25;;
52300;SDS011;38528;53.214;6.562;2022-08-19T01:53:03;16.35;;;9.73;;
52300;SDS011;38528;53.214;6.562;2022-08-19T01:55:33;15.25;;;10.00;;
52300;SDS011;38528;53.214;6.562;2022-08-19T01:58:02;13.55;;;9.20;;
52300;SDS011;38528;53.214;6.562;2022-08-19T02:00:31;12.90;;;9.20;;
52300;SDS011;38528;53.214;6.562;2022-08-19T02:02:57;15.00;;;9.70;;
52300;SDS011;38528;53.214;6.562;2022-08-19T02:05:23;13.43;;;9.20;;
52300;SDS011;38528;53.214;6.562;2022-08-19T02:07:49;17.73;;;9.90;;
52300;SDS011;38528;53.214;6.562;2022-08-19T02:10:17;16.35;;;9.50;;
52300;SDS011;38528;53.214;6.562;2022-08-19T02:12:46;14.82;;;9.65;;
52300;SDS011;38528;53.214;6.562;2022-08-19T02:15:12;13.63;;;9.45;;
52300;SDS011;38528;53.214;6.562;2022-08-19T02:17:37;13.40;;;8.95;;
52300;SDS011;38528;53.214;6.562;2022-08-19T02:20:04;15.07;;;9.52;;
52300;SDS011;38528;53.214;6.562;2022-08-19T02:22:31;16.13;;;8.88;;
52300;SDS011;38528;53.214;6.562;2022-08-19T02:24:57;14.13;;;8.88;;
52300;SDS011;38528;53.214;6.562;2022-08-19T02:27:23;13.73;;;8.95;;
52300;SDS011;38528;53.214;6.562;2022-08-19T02:29:50;13.63;;;8.63;;
52300;SDS011;38528;53.214;6.562;2022-08-19T02:32:16;13.55;;;9.48;;
52300;SDS011;38528;53.214;6.562;2022-08-19T02:34:47;12.65;;;9.38;;
52300;SDS011;38528;53.214;6.562;2022-08-19T02:37:13;14.77;;;9.27;;
52300;SDS011;38528;53.214;6.562;2022-08-19T02:39:57;13.73;;;9.23;;
52300;SDS011;38528;53.214;6.562;2022-08-19T02:42:24;11.23;;;8.60;;
52300;SDS011;38528;53.214;6.562;2022-08-19T02:44:50;12.63;;;8.85;;
52300;SDS011;38528;53.214;6.562;2022-08-19T02:47:20;12.85;;;8.57;;
52300;SDS011;38528;53.214;6.562;2022-08-19T02:49:46;11.27;;;8.82;;
52300;SDS011;38528;53.214;6.562;2022-08-19T02:52:13;11.80;;;9.05;;
52300;SDS011;38528;53.214;6.562;2022-08-19T02:54:39;11.15;;;8.20;;
52300;SDS011;38528;53.214;6.562;2022-08-19T02:57:05;10.75;;;8.02;;
52300;SDS011;38528;53.214;6.562;2022-08-19T02:59:31;12.23;;;8.07;;
52300;SDS011;38528;53.214;6.562;2022-08-19T03:01:57;9.73;;;8.20;;
52300;SDS011;38528;53.214;6.562;2022-08-19T03:04:23;10.57;;;8.38;;
52300;SDS011;38528;53.214;6.562;2022-08-19T03:06:49;10.05;;;8.27;;
52300;SDS011;38528;53.214;6.562;2022-08-19T03:09:16;11.98;;;8.27;;
52300;SDS011;38528;53.214;6.562;2022-08-19T03:11:42;13.40;;;8.55;;
52300;SDS011;38528;53.214;6.562;2022-08-19T03:14:09;13.43;;;8.98;;
52300;SDS011;38528;53.214;6.562;2022-08-19T03:16:39;13.43;;;9.18;;
52300;SDS011;38528;53.214;6.562;2022-08-19T03:19:09;11.37;;;8.97;;
52300;SDS011;38528;53.214;6.562;2022-08-19T03:21:35;11.80;;;8.55;;
52300;SDS011;38528;53.214;6.562;2022-08-19T03:24:02;12.60;;;8.43;;
52300;SDS011;38528;53.214;6.562;2022-08-19T03:26:31;13.68;;;9.23;;
52300;SDS011;38528;53.214;6.562;2022-08-19T03:28:56;12.07;;;7.95;;
52300;SDS011;38528;53.214;6.562;2022-08-19T03:31:22;13.27;;;9.07;;
52300;SDS011;38528;53.214;6.562;2022-08-19T03:33:49;11.98;;;8.95;;
52300;SDS011;38528;53.214;6.562;2022-08-19T03:36:17;11.68;;;8.50;;
52300;SDS011;38528;53.214;6.562;2022-08-19T03:38:47;13.63;;;8.85;;
52300;SDS011;38528;53.214;6.562;2022-08-19T03:41:18;12.30;;;8.57;;
52300;SDS011;38528;53.214;6.562;2022-08-19T03:43:45;17.40;;;9.23;;
52300;SDS011;38528;53.214;6.562;2022-08-19T03:46:13;13.30;;;9.15;;
52300;SDS011;38528;53.214;6.562;2022-08-19T03:48:42;14.18;;;9.30;;
52300;SDS011;38528;53.214;6.562;2022-08-19T03:51:15;12.65;;;8.77;;
52300;SDS011;38528;53.214;6.562;2022-08-19T03:54:01;13.10;;;9.10;;
52300;SDS011;38528;53.214;6.562;2022-08-19T03:56:29;12.85;;;9.10;;
52300;SDS011;38528;53.214;6.562;2022-08-19T03:58:56;15.95;;;9.23;;
52300;SDS011;38528;53.214;6.562;2022-08-19T04:01:25;11.05;;;8.55;;
52300;SDS011;38528;53.214;6.562;2022-08-19T04:03:52;11.95;;;9.30;;
52300;SDS011;38528;53.214;6.562;2022-08-19T04:06:20;12.80;;;9.07;;
52300;SDS011;38528;53.214;6.562;2022-08-19T04:08:49;13.07;;;9.10;;
52300;SDS011;38528;53.214;6.562;2022-08-19T04:11:17;15.93;;;9.20;;
52300;SDS011;38528;53.214;6.562;2022-08-19T04:13:46;13.15;;;9.70;;
52300;SDS011;38528;53.214;6.562;2022-08-19T04:16:12;14.15;;;9.95;;
52300;SDS011;38528;53.214;6.562;2022-08-19T04:18:38;16.15;;;9.77;;
52300;SDS011;38528;53.214;6.562;2022-08-19T04:21:05;12.73;;;9.15;;
52300;SDS011;38528;53.214;6.562;2022-08-19T04:23:33;14.23;;;9.55;;
52300;SDS011;38528;53.214;6.562;2022-08-19T04:26:01;13.60;;;9.65;;
52300;SDS011;38528;53.214;6.562;2022-08-19T04:28:27;13.70;;;9.52;;
52300;SDS011;38528;53.214;6.562;2022-08-19T04:30:54;14.05;;;9.48;;
52300;SDS011;38528;53.214;6.562;2022-08-19T04:33:21;13.70;;;9.15;;
52300;SDS011;38528;53.214;6.562;2022-08-19T04:35:49;12.70;;;9.20;;
52300;SDS011;38528;53.214;6.562;2022-08-19T04:38:18;13.50;;;8.77;;
52300;SDS011;38528;53.214;6.562;2022-08-19T04:40:46;13.98;;;9.43;;
52300;SDS011;38528;53.214;6.562;2022-08-19T04:43:34;13.95;;;9.57;;
52300;SDS011;38528;53.214;6.562;2022-08-19T04:46:05;16.33;;;9.57;;
52300;SDS011;38528;53.214;6.562;2022-08-19T04:48:37;12.63;;;9.32;;
52300;SDS011;38528;53.214;6.562;2022-08-19T04:51:08;12.05;;;9.18;;
52300;SDS011;38528;53.214;6.562;2022-08-19T04:53:37;12.50;;;9.60;;
52300;SDS011;38528;53.214;6.562;2022-08-19T04:56:05;12.93;;;9.57;;
52300;SDS011;38528;53.214;6.562;2022-08-19T04:58:33;12.98;;;9.95;;
52300;SDS011;38528;53.214;6.562;2022-08-19T05:01:00;14.35;;;10.27;;
52300;SDS011;38528;53.214;6.562;2022-08-19T05:03:26;14.85;;;9.40;;
52300;SDS011;38528;53.214;6.562;2022-08-19T05:05:52;15.57;;;9.85;;
52300;SDS011;38528;53.214;6.562;2022-08-19T05:08:19;18.17;;;10.25;;
52300;SDS011;38528;53.214;6.562;2022-08-19T05:10:47;17.02;;;10.88;;
52300;SDS011;38528;53.214;6.562;2022-08-19T05:13:14;17.45;;;10.93;;
52300;SDS011;38528;53.214;6.562;2022-08-19T05:15:41;14.88;;;10.98;;
52300;SDS011;38528;53.214;6.562;2022-08-19T05:18:07;15.52;;;10.48;;
52300;SDS011;38528;53.214;6.562;2022-08-19T05:20:51;14.65;;;10.43;;
52300;SDS011;38528;53.214;6.562;2022-08-19T05:23:36;16.05;;;10.45;;
52300;SDS011;38528;53.214;6.562;2022-08-19T05:26:01;18.17;;;11.23;;
52300;SDS011;38528;53.214;6.562;2022-08-19T05:28:27;16.60;;;12.07;;
52300;SDS011;38528;53.214;6.562;2022-08-19T05:30:53;17.45;;;12.63;;
52300;SDS011;38528;53.214;6.562;2022-08-19T05:33:20;17.30;;;12.55;;
52300;SDS011;38528;53.214;6.562;2022-08-19T05:35:46;16.23;;;12.60;;
52300;SDS011;38528;53.214;6.562;2022-08-19T05:38:14;21.38;;;12.65;;
52300;SDS011;38528;53.214;6.562;2022-08-19T05:40:41;18.30;;;12.60;;
52300;SDS011;38528;53.214;6.562;2022-08-19T05:43:10;17.60;;;11.93;;
52300;SDS011;38528;53.214;6.562;2022-08-19T05:45:39;15.15;;;11.82;;
52300;SDS011;38528;53.214;6.562;2022-08-19T05:48:07;19.67;;;13.30;;
52300;SDS011;38528;53.214;6.562;2022-08-19T05:50:37;20.83;;;12.40;;
52300;SDS011;38528;53.214;6.562;2022-08-19T05:53:04;19.58;;;13.65;;
52300;SDS011;38528;53.214;6.562;2022-08-19T05:55:30;18.17;;;13.07;;
52300;SDS011;38528;53.214;6.562;2022-08-19T05:57:56;21.13;;;13.18;;
52300;SDS011;38528;53.214;6.562;2022-08-19T06:00:21;24.50;;;13.40;;
52300;SDS011;38528;53.214;6.562;2022-08-19T06:02:48;18.55;;;13.40;;
52300;SDS011;38528;53.214;6.562;2022-08-19T06:05:13;18.65;;;12.57;;
52300;SDS011;38528;53.214;6.562;2022-08-19T06:07:39;21.00;;;11.77;;
52300;SDS011;38528;53.214;6.562;2022-08-19T06:10:06;14.90;;;11.90;;
52300;SDS011;38528;53.214;6.562;2022-08-19T06:12:34;16.63;;;12.73;;
52300;SDS011;38528;53.214;6.562;2022-08-19T06:15:02;17.65;;;12.32;;
52300;SDS011;38528;53.214;6.562;2022-08-19T06:22:31;16.08;;;10.90;;
52300;SDS011;38528;53.214;6.562;2022-08-19T06:25:02;14.88;;;10.73;;
52300;SDS011;38528;53.214;6.562;2022-08-19T06:27:28;13.70;;;10.32;;
52300;SDS011;38528;53.214;6.562;2022-08-19T06:29:55;12.73;;;9.55;;
52300;SDS011;38528;53.214;6.562;2022-08-19T06:32:21;13.90;;;9.93;;
52300;SDS011;38528;53.214;6.562;2022-08-19T06:34:47;13.70;;;9.93;;
52300;SDS011;38528;53.214;6.562;2022-08-19T06:37:13;18.38;;;11.27;;
52300;SDS011;38528;53.214;6.562;2022-08-19T06:39:39;15.85;;;10.85;;
52300;SDS011;38528;53.214;6.562;2022-08-19T06:42:06;11.63;;;9.80;;
52300;SDS011;38528;53.214;6.562;2022-08-19T06:44:37;16.13;;;11.00;;
52300;SDS011;38528;53.214;6.562;2022-08-19T06:47:05;14.05;;;10.50;;
52300;SDS011;38528;53.214;6.562;2022-08-19T06:49:33;14.43;;;10.75;;
52300;SDS011;38528;53.214;6.562;2022-08-19T06:51:59;14.80;;;10.02;;
52300;SDS011;38528;53.214;6.562;2022-08-19T06:54:26;16.23;;;10.43;;
52300;SDS011;38528;53.214;6.562;2022-08-19T06:56:54;12.55;;;9.82;;
52300;SDS011;38528;53.214;6.562;2022-08-19T06:59:21;13.20;;;9.90;;
52300;SDS011;38528;53.214;6.562;2022-08-19T07:01:52;13.32;;;10.13;;
52300;SDS011;38528;53.214;6.562;2022-08-19T07:04:24;14.40;;;10.20;;
52300;SDS011;38528;53.214;6.562;2022-08-19T07:06:56;13.35;;;9.10;;
52300;SDS011;38528;53.214;6.562;2022-08-19T07:09:32;14.90;;;10.23;;
52300;SDS011;38528;53.214;6.562;2022-08-19T07:12:02;14.90;;;9.73;;
52300;SDS011;38528;53.214;6.562;2022-08-19T07:14:28;14.00;;;10.02;;
52300;SDS011;38528;53.214;6.562;2022-08-19T07:16:55;13.20;;;9.82;;
52300;SDS011;38528;53.214;6.562;2022-08-19T07:19:21;13.35;;;9.57;;
52300;SDS011;38528;53.214;6.562;2022-08-19T07:21:50;16.85;;;9.77;;
52300;SDS011;38528;53.214;6.562;2022-08-19T07:24:22;12.57;;;9.73;;
52300;SDS011;38528;53.214;6.562;2022-08-19T07:26:50;15.05;;;8.80;;
52300;SDS011;38528;53.214;6.562;2022-08-19T07:29:17;10.95;;;9.13;;
52300;SDS011;38528;53.214;6.562;2022-08-19T07:31:43;12.55;;;9.00;;
52300;SDS011;38528;53.214;6.562;2022-08-19T07:34:10;12.38;;;9.05;;
52300;SDS011;38528;53.214;6.562;2022-08-19T07:36:39;15.25;;;9.63;;
52300;SDS011;38528;53.214;6.562;2022-08-19T07:39:20;13.25;;;9.40;;
52300;SDS011;38528;53.214;6.562;2022-08-19T07:41:50;11.77;;;9.07;;
52300;SDS011;38528;53.214;6.562;2022-08-19T07:44:17;14.73;;;9.82;;
52300;SDS011;38528;53.214;6.562;2022-08-19T07:46:46;15.93;;;9.10;;
52300;SDS011;38528;53.214;6.562;2022-08-19T07:49:14;10.90;;;9.13;;
52300;SDS011;38528;53.214;6.562;2022-08-19T07:51:45;13.48;;;9.52;;
52300;SDS011;38528;53.214;6.562;2022-08-19T07:54:13;12.00;;;9.30;;
52300;SDS011;38528;53.214;6.562;2022-08-19T07:56:39;11.20;;;9.13;;
52300;SDS011;38528;53.214;6.562;2022-08-19T07:59:04;12.57;;;8.95;;
52300;SDS011;38528;53.214;6.562;2022-08-19T08:01:30;16.88;;;9.05;;
52300;SDS011;38528;53.214;6.562;2022-08-19T08:03:57;12.43;;;8.38;;
52300;SDS011;38528;53.214;6.562;2022-08-19T08:06:42;10.82;;;9.20;;
52300;SDS011;38528;53.214;6.562;2022-08-19T08:09:27;12.07;;;8.95;;
52300;SDS011;38528;53.214;6.562;2022-08-19T08:11:57;12.43;;;8.80;;
52300;SDS011;38528;53.214;6.562;2022-08-19T08:14:43;12.65;;;9.93;;
52300;SDS011;38528;53.214;6.562;2022-08-19T08:17:12;12.05;;;8.40;;
52300;SDS011;38528;53.214;6.562;2022-08-19T08:19:39;11.38;;;8.88;;
52300;SDS011;38528;53.214;6.562;2022-08-19T08:22:06;11.27;;;8.05;;
52300;SDS011;38528;53.214;6.562;2022-08-19T08:24:33;11.73;;;9.38;;
52300;SDS011;38528;53.214;6.562;2022-08-19T08:27:00;11.48;;;8.50;;
52300;SDS011;38528;53.214;6.562;2022-08-19T08:29:27;12.27;;;7.47;;
52300;SDS011;38528;53.214;6.562;2022-08-19T08:31:54;8.50;;;7.28;;
52300;SDS011;38528;53.214;6.562;2022-08-19T08:34:20;8.98;;;6.50;;
52300;SDS011;38528;53.214;6.562;2022-08-19T08:36:46;9.55;;;7.07;;
52300;SDS011;38528;53.214;6.562;2022-08-19T08:39:16;10.32;;;8.77;;
52300;SDS011;38528;53.214;6.562;2022-08-19T08:41:50;9.80;;;7.78;;
52300;SDS011;38528;53.214;6.562;2022-08-19T08:47:05;11.02;;;9.10;;
52300;SDS011;38528;53.214;6.562;2022-08-19T08:52:07;12.00;;;9.95;;
52300;SDS011;38528;53.214;6.562;2022-08-19T08:54:39;12.82;;;9.77;;
52300;SDS011;38528;53.214;6.562;2022-08-19T08:57:19;11.65;;;9.30;;
52300;SDS011;38528;53.214;6.562;2022-08-19T09:00:00;12.95;;;11.07;;
52300;SDS011;38528;53.214;6.562;2022-08-19T09:02:31;13.77;;;10.15;;
52300;SDS011;38528;53.214;6.562;2022-08-19T09:04:57;12.27;;;10.07;;
52300;SDS011;38528;53.214;6.562;2022-08-19T09:10:10;11.82;;;9.48;;
52300;SDS011;38528;53.214;6.562;2022-08-19T09:15:18;13.63;;;9.63;;
52300;SDS011;38528;53.214;6.562;2022-08-19T09:20:20;11.68;;;8.65;;
52300;SDS011;38528;53.214;6.562;2022-08-19T09:22:48;12.65;;;9.40;;
52300;SDS011;38528;53.214;6.562;2022-08-19T09:25:18;12.52;;;9.55;;
52300;SDS011;38528;53.214;6.562;2022-08-19T09:27:48;11.38;;;8.60;;
52300;SDS011;38528;53.214;6.562;2022-08-19T09:30:16;10.32;;;8.93;;
52300;SDS011;38528;53.214;6.562;2022-08-19T09:32:44;10.65;;;8.70;;
52300;SDS011;38528;53.214;6.562;2022-08-19T09:35:10;9.25;;;7.68;;
52300;SDS011;38528;53.214;6.562;2022-08-19T09:37:37;13.02;;;8.98;;
52300;SDS011;38528;53.214;6.562;2022-08-19T09:40:04;14.48;;;9.30;;
52300;SDS011;38528;53.214;6.562;2022-08-19T09:42:30;9.52;;;8.52;;
52300;SDS011;38528;53.214;6.562;2022-08-19T09:44:55;9.07;;;7.55;;
52300;SDS011;38528;53.214;6.562;2022-08-19T09:47:21;10.40;;;7.78;;
52300;SDS011;38528;53.214;6.562;2022-08-19T09:49:46;9.63;;;7.93;;
52300;SDS011;38528;53.214;6.562;2022-08-19T09:52:13;7.85;;;6.93;;
52300;SDS011;38528;53.214;6.562;2022-08-19T09:54:40;9.15;;;6.78;;
52300;SDS011;38528;53.214;6.562;2022-08-19T09:57:06;10.18;;;6.90;;
52300;SDS011;38528;53.214;6.562;2022-08-19T09:59:32;8.80;;;6.68;;
52300;SDS011;38528;53.214;6.562;2022-08-19T10:01:58;11.65;;;8.23;;
52300;SDS011;38528;53.214;6.562;2022-08-19T10:04:24;9.20;;;7.68;;
52300;SDS011;38528;53.214;6.562;2022-08-19T10:07:10;8.05;;;7.25;;
52300;SDS011;38528;53.214;6.562;2022-08-19T10:09:35;10.02;;;7.82;;
52300;SDS011;38528;53.214;6.562;2022-08-19T10:12:02;9.85;;;8.25;;
52300;SDS011;38528;53.214;6.562;2022-08-19T10:14:29;10.70;;;8.55;;
52300;SDS011;38528;53.214;6.562;2022-08-19T10:16:55;10.43;;;8.98;;
52300;SDS011;38528;53.214;6.562;2022-08-19T10:19:21;9.57;;;7.40;;
52300;SDS011;38528;53.214;6.562;2022-08-19T10:21:47;8.90;;;7.07;;
52300;SDS011;38528;53.214;6.562;2022-08-19T10:24:13;7.50;;;6.70;;
52300;SDS011;38528;53.214;6.562;2022-08-19T10:26:39;9.38;;;7.10;;
52300;SDS011;38528;53.214;6.562;2022-08-19T10:29:12;9.82;;;7.90;;
52300;SDS011;38528;53.214;6.562;2022-08-19T10:31:40;9.70;;;8.60;;
52300;SDS011;38528;53.214;6.562;2022-08-19T10:34:06;8.40;;;7.50;;
52300;SDS011;38528;53.214;6.562;2022-08-19T10:36:33;9.75;;;7.80;;
52300;SDS011;38528;53.214;6.562;2022-08-19T10:39:03;7.78;;;6.78;;
52300;SDS011;38528;53.214;6.562;2022-08-19T10:41:34;8.73;;;6.47;;
52300;SDS011;38528;53.214;6.562;2022-08-19T10:44:08;9.20;;;7.97;;
52300;SDS011;38528;53.214;6.562;2022-08-19T10:46:37;11.90;;;8.05;;
52300;SDS011;38528;53.214;6.562;2022-08-19T10:49:06;9.27;;;7.97;;
52300;SDS011;38528;53.214;6.562;2022-08-19T10:51:33;7.68;;;6.88;;
52300;SDS011;38528;53.214;6.562;2022-08-19T10:54:17;8.82;;;7.93;;
52300;SDS011;38528;53.214;6.562;2022-08-19T10:56:43;7.90;;;6.57;;
52300;SDS011;38528;53.214;6.562;2022-08-19T11:01:52;9.32;;;7.15;;
52300;SDS011;38528;53.214;6.562;2022-08-19T11:04:19;8.73;;;7.10;;
52300;SDS011;38528;53.214;6.562;2022-08-19T11:06:45;9.95;;;8.15;;
52300;SDS011;38528;53.214;6.562;2022-08-19T11:09:14;9.57;;;6.97;;
52300;SDS011;38528;53.214;6.562;2022-08-19T11:11:41;8.35;;;6.32;;
52300;SDS011;38528;53.214;6.562;2022-08-19T11:14:12;8.90;;;7.53;;
52300;SDS011;38528;53.214;6.562;2022-08-19T11:16:41;10.90;;;7.57;;
52300;SDS011;38528;53.214;6.562;2022-08-19T11:19:08;9.35;;;8.43;;
52300;SDS011;38528;53.214;6.562;2022-08-19T11:21:37;9.38;;;8.48;;
52300;SDS011;38528;53.214;6.562;2022-08-19T11:24:15;9.40;;;7.45;;
52300;SDS011;38528;53.214;6.562;2022-08-19T11:26:48;7.70;;;6.35;;
52300;SDS011;38528;53.214;6.562;2022-08-19T11:29:16;8.98;;;6.90;;
52300;SDS011;38528;53.214;6.562;2022-08-19T11:31:45;7.25;;;6.00;;
52300;SDS011;38528;53.214;6.562;2022-08-19T11:34:14;7.38;;;6.15;;
52300;SDS011;38528;53.214;6.562;2022-08-19T11:36:43;9.38;;;7.82;;
52300;SDS011;38528;53.214;6.562;2022-08-19T11:39:11;8.60;;;7.07;;
52300;SDS011;38528;53.214;6.562;2022-08-19T11:41:38;8.32;;;7.47;;
52300;SDS011;38528;53.214;6.562;2022-08-19T11:44:04;7.95;;;6.30;;
52300;SDS011;38528;53.214;6.562;2022-08-19T11:46:33;8.18;;;6.20;;
52300;SDS011;38528;53.214;6.562;2022-08-19T11:48:59;8.15;;;6.90;;
52300;SDS011;38528;53.214;6.562;2022-08-19T11:51:26;8.38;;;6.80;;
52300;SDS011;38528;53.214;6.562;2022-08-19T11:53:53;9.15;;;7.47;;
52300;SDS011;38528;53.214;6.562;2022-08-19T11:56:21;8.40;;;7.50;;
52300;SDS011;38528;53.214;6.562;2022-08-19T11:58:47;7.28;;;6.57;;
52300;SDS011;38528;53.214;6.562;2022-08-19T12:01:14;11.25;;;7.50;;
52300;SDS011;38528;53.214;6.562;2022-08-19T12:03:44;9.52;;;8.20;;
52300;SDS011;38528;53.214;6.562;2022-08-19T12:06:14;10.13;;;7.38;;
52300;SDS011;38528;53.214;6.562;2022-08-19T12:08:43;9.43;;;8.32;;
52300;SDS011;38528;53.214;6.562;2022-08-19T12:11:10;10.65;;;7.65;;
52300;SDS011;38528;53.214;6.562;2022-08-19T12:13:37;9.93;;;8.10;;
52300;SDS011;38528;53.214;6.562;2022-08-19T12:16:11;8.90;;;8.00;;
52300;SDS011;38528;53.214;6.562;2022-08-19T12:18:39;9.75;;;6.75;;
52300;SDS011;38528;53.214;6.562;2022-08-19T12:21:12;9.20;;;7.30;;
52300;SDS011;38528;53.214;6.562;2022-08-19T12:23:39;9.20;;;7.63;;
52300;SDS011;38528;53.214;6.562;2022-08-19T12:26:06;8.50;;;6.70;;
52300;SDS011;38528;53.214;6.562;2022-08-19T12:28:34;11.23;;;8.30;;
52300;SDS011;38528;53.214;6.562;2022-08-19T12:31:00;8.13;;;6.90;;
52300;SDS011;38528;53.214;6.562;2022-08-19T12:33:26;12.10;;;8.27;;
52300;SDS011;38528;53.214;6.562;2022-08-19T12:35:53;10.38;;;7.75;;
52300;SDS011;38528;53.214;6.562;2022-08-19T12:38:20;10.00;;;7.82;;
52300;SDS011;38528;53.214;6.562;2022-08-19T12:40:49;9.85;;;7.50;;
52300;SDS011;38528;53.214;6.562;2022-08-19T12:43:16;10.48;;;7.63;;
52300;SDS011;38528;53.214;6.562;2022-08-19T12:45:42;9.55;;;8.02;;
52300;SDS011;38528;53.214;6.562;2022-08-19T12:48:10;11.95;;;7.68;;
52300;SDS011;38528;53.214;6.562;2022-08-19T12:50:38;10.25;;;7.50;;
52300;SDS011;38528;53.214;6.562;2022-08-19T12:53:04;9.70;;;6.90;;
52300;SDS011;38528;53.214;6.562;2022-08-19T12:55:30;8.40;;;6.65;;
52300;SDS011;38528;53.214;6.562;2022-08-19T12:57:56;9.23;;;6.80;;
52300;SDS011;38528;53.214;6.562;2022-08-19T13:00:22;9.05;;;6.55;;
52300;SDS011;38528;53.214;6.562;2022-08-19T13:02:49;11.05;;;7.28;;
52300;SDS011;38528;53.214;6.562;2022-08-19T13:05:18;10.05;;;7.57;;
52300;SDS011;38528;53.214;6.562;2022-08-19T13:07:50;11.80;;;7.85;;
52300;SDS011;38528;53.214;6.562;2022-08-19T13:10:18;11.20;;;8.80;;
52300;SDS011;38528;53.214;6.562;2022-08-19T13:12:47;10.10;;;8.13;;
52300;SDS011;38528;53.214;6.562;2022-08-19T13:15:15;10.57;;;8.63;;
52300;SDS011;38528;53.214;6.562;2022-08-19T13:17:46;12.70;;;8.50;;
52300;SDS011;38528;53.214;6.562;2022-08-19T13:20:16;13.65;;;8.77;;
52300;SDS011;38528;53.214;6.562;2022-08-19T13:22:44;12.68;;;9.05;;
52300;SDS011;38528;53.214;6.562;2022-08-19T13:25:11;12.75;;;9.13;;
52300;SDS011;38528;53.214;6.562;2022-08-19T13:27:38;13.98;;;9.30;;
52300;SDS011;38528;53.214;6.562;2022-08-19T13:30:05;16.77;;;10.90;;
52300;SDS011;38528;53.214;6.562;2022-08-19T13:32:51;13.20;;;9.52;;
52300;SDS011;38528;53.214;6.562;2022-08-19T13:35:35;13.15;;;9.48;;
52300;SDS011;38528;53.214;6.562;2022-08-19T13:38:02;14.60;;;10.18;;
52300;SDS011;38528;53.214;6.562;2022-08-19T13:40:30;12.25;;;8.50;;
52300;SDS011;38528;53.214;6.562;2022-08-19T13:42:59;11.88;;;6.75;;
52300;SDS011;38528;53.214;6.562;2022-08-19T13:45:27;9.27;;;6.70;;
52300;SDS011;38528;53.214;6.562;2022-08-19T13:47:54;8.93;;;6.70;;
52300;SDS011;38528;53.214;6.562;2022-08-19T13:50:22;11.05;;;7.45;;
52300;SDS011;38528;53.214;6.562;2022-08-19T13:52:50;10.18;;;7.80;;
52300;SDS011;38528;53.214;6.562;2022-08-19T13:55:17;10.02;;;7.82;;
52300;SDS011;38528;53.214;6.562;2022-08-19T13:57:42;11.05;;;7.43;;
52300;SDS011;38528;53.214;6.562;2022-08-19T14:00:09;11.20;;;6.78;;
52300;SDS011;38528;53.214;6.562;2022-08-19T14:02:39;9.98;;;6.95;;
52300;SDS011;38528;53.214;6.562;2022-08-19T14:05:05;9.63;;;7.45;;
52300;SDS011;38528;53.214;6.562;2022-08-19T14:07:33;7.68;;;6.75;;
52300;SDS011;38528;53.214;6.562;2022-08-19T14:09:59;8.82;;;5.65;;
52300;SDS011;38528;53.214;6.562;2022-08-19T14:12:25;8.63;;;5.85;;
52300;SDS011;38528;53.214;6.562;2022-08-19T14:14:51;10.05;;;6.75;;
52300;SDS011;38528;53.214;6.562;2022-08-19T14:17:16;9.60;;;6.10;;
52300;SDS011;38528;53.214;6.562;2022-08-19T14:19:42;13.35;;;8.70;;
52300;SDS011;38528;53.214;6.562;2022-08-19T14:22:08;12.40;;;8.05;;
52300;SDS011;38528;53.214;6.562;2022-08-19T14:24:36;12.98;;;8.52;;
52300;SDS011;38528;53.214;6.562;2022-08-19T14:27:04;13.40;;;9.75;;
52300;SDS011;38528;53.214;6.562;2022-08-19T14:29:31;14.68;;;9.60;;
52300;SDS011;38528;53.214;6.562;2022-08-19T14:31:57;15.75;;;10.70;;
52300;SDS011;38528;53.214;6.562;2022-08-19T14:34:24;13.45;;;9.68;;
52300;SDS011;38528;53.214;6.562;2022-08-19T14:36:50;14.02;;;9.20;;
52300;SDS011;38528;53.214;6.562;2022-08-19T14:39:16;14.60;;;10.23;;
52300;SDS011;38528;53.214;6.562;2022-08-19T14:41:42;12.48;;;10.82;;
52300;SDS011;38528;53.214;6.562;2022-08-19T14:44:08;16.92;;;9.60;;
52300;SDS011;38528;53.214;6.562;2022-08-19T14:46:37;13.55;;;10.00;;
52300;SDS011;38528;53.214;6.562;2022-08-19T14:49:03;12.73;;;8.77;;
52300;SDS011;38528;53.214;6.562;2022-08-19T14:51:29;18.10;;;9.13;;
52300;SDS011;38528;53.214;6.562;2022-08-19T14:53:54;15.57;;;9.75;;
52300;SDS011;38528;53.214;6.562;2022-08-19T14:56:21;14.70;;;10.38;;
52300;SDS011;38528;53.214;6.562;2022-08-19T14:58:49;16.58;;;10.48;;
52300;SDS011;38528;53.214;6.562;2022-08-19T15:01:16;13.85;;;10.38;;
52300;SDS011;38528;53.214;6.562;2022-08-19T15:03:42;13.55;;;9.60;;